createdAt,value
2023-01-26T00:01:17.919Z,97669.81712528461
2023-01-26T00:04:16.008Z,97674.12574809245
2023-01-26T00:07:16.048Z,97668.72405378928
2023-01-26T00:11:18.376Z,97650.57877360602
2023-01-26T00:14:16.585Z,97654.34696885454
2023-01-26T00:21:21.182Z,97645.77415955007
2023-01-26T00:24:15.967Z,97635.17950381116
2023-01-26T00:27:15.938Z,97638.94563256027
2023-01-26T00:31:18.180Z,97630.35234667792
2023-01-26T00:34:16.382Z,97624.43109728403
2023-01-26T00:37:16.420Z,97623.28791567987
2023-01-26T00:42:06.531Z,97625.48195001345
2023-01-26T00:44:15.643Z,97627.15337105027
2023-01-26T00:47:17.329Z,97618.33918074361
2023-01-26T00:51:15.952Z,97622.41619725432
2023-01-26T00:54:16.500Z,97621.5019142787
2023-01-26T00:57:16.276Z,97618.72580818975
2023-01-26T01:01:16.094Z,97617.8983436512
2023-01-26T01:04:16.679Z,97618.17555212484
2023-01-26T01:07:16.660Z,97622.55903203729
2023-01-26T01:11:16.010Z,97627.7378531067
2023-01-26T01:14:16.991Z,97621.79132699769
2023-01-26T01:17:16.404Z,97620.83599491078
2023-01-26T01:21:17.119Z,97611.63885559104
2023-01-26T01:24:16.635Z,97611.46212776144
2023-01-26T01:27:16.579Z,97605.69937403423
2023-01-26T01:31:16.755Z,97598.20356127643
2023-01-26T01:34:16.890Z,97592.87803270906
2023-01-26T01:37:17.416Z,97586.73043023454
2023-01-26T01:41:18.607Z,97578.71436057705
2023-01-26T01:44:18.936Z,97577.65741279416
2023-01-26T01:47:23.515Z,97586.03688113815
2023-01-26T01:51:20.803Z,97573.0351943004
2023-01-26T01:54:21.991Z,97569.04844508432
2023-01-26T01:57:23.648Z,97561.37310465983
2023-01-26T02:01:16.673Z,97558.07604772432
2023-01-26T02:04:19.486Z,97554.86534713705
2023-01-26T02:07:17.145Z,97550.84203992231
2023-01-26T02:11:20.640Z,97544.19585840621
2023-01-26T02:14:16.904Z,97540.26541830464
2023-01-26T02:17:16.753Z,97536.52124602094
2023-01-26T02:21:18.861Z,97535.90476405318
2023-01-26T02:24:21.906Z,97532.82161198098
2023-01-26T02:27:16.732Z,97530.36995606488
2023-01-26T02:31:17.827Z,97515.70555927776
2023-01-26T02:34:16.629Z,97514.77340844508
2023-01-26T02:37:16.548Z,97510.83572903014
2023-01-26T02:42:38.508Z,97509.77911321585
2023-01-26T02:44:16.998Z,97506.32018618232
2023-01-26T02:47:17.996Z,97502.41063521673
2023-01-26T02:51:15.725Z,97498.39609073388
2023-01-26T02:55:22.457Z,97495.04363894563
2023-01-26T02:57:16.179Z,97493.13451179813
2023-01-26T03:01:16.151Z,97484.2105374752
2023-01-26T03:04:16.649Z,97474.7235245774
2023-01-26T03:07:17.179Z,97475.12774659888
2023-01-26T03:11:15.841Z,97467.71440127844
2023-01-26T03:14:16.821Z,97464.68054338558
2023-01-26T03:17:16.210Z,97465.8339765041
2023-01-26T03:31:16.089Z,97432.65169690091
2023-01-26T03:34:16.432Z,97432.1050279119
2023-01-26T03:37:16.568Z,97433.66299769246
2023-01-26T04:01:20.743Z,97404.93293914024
2023-01-26T04:11:15.648Z,97391.56356043034
2023-01-26T04:21:34.550Z,97386.38178853686
2023-01-26T04:24:17.387Z,97382.11917154612
2023-01-26T04:27:16.594Z,97378.31854110924
2023-01-26T04:31:16.531Z,97380.1032300468
2023-01-26T04:34:16.462Z,97376.41839476228
2023-01-26T04:37:16.379Z,97370.48652651302
2023-01-26T04:41:15.891Z,97371.56974261311
2023-01-26T04:44:16.905Z,97372.52585247766
2023-01-26T04:47:16.080Z,97366.88954963375
2023-01-26T04:51:17.136Z,97365.39141804709
2023-01-26T04:54:15.843Z,97367.90488944021
2023-01-26T04:57:15.904Z,97370.95468334542
2023-01-26T05:01:16.562Z,97372.6386793125
2023-01-26T05:04:16.512Z,97370.78512367944
2023-01-26T05:07:16.369Z,97381.90945879756
2023-01-26T05:11:15.653Z,97371.04799899658
2023-01-26T05:14:16.104Z,97378.24638830974
2023-01-26T05:17:17.913Z,97372.57009178384
2023-01-26T05:21:16.443Z,97369.66608213958
2023-01-26T05:24:16.913Z,97370.06767226974
2023-01-26T05:27:24.072Z,97375.43464829943
2023-01-26T05:31:15.641Z,97376.64148473181
2023-01-26T05:34:15.922Z,97375.04581758346
2023-01-26T05:37:16.083Z,97378.51431369163
2023-01-26T05:41:16.242Z,97382.90220597027
2023-01-26T05:51:16.930Z,97376.46159998004
2023-01-26T05:54:17.387Z,97377.39260476566
2023-01-26T05:57:17.852Z,97374.72800575732
2023-01-26T06:01:15.730Z,97366.94330343558
2023-01-26T06:04:16.286Z,97365.46551651516
2023-01-26T06:07:16.521Z,97359.68176485026
2023-01-26T06:11:15.927Z,97360.13426830988
2023-01-26T06:14:16.226Z,97359.86331702865
2023-01-26T06:17:17.608Z,97358.03346260362
2023-01-26T06:21:16.151Z,97351.21402652482
2023-01-26T06:24:16.258Z,97349.68625121155
2023-01-26T06:27:17.025Z,97352.90337690101
2023-01-26T06:31:16.259Z,97350.4558084887
2023-01-26T06:34:16.810Z,97353.35558080129
2023-01-26T06:37:16.552Z,97352.07423759601
2023-01-26T06:41:16.540Z,97346.39049094732
2023-01-26T06:44:16.525Z,97336.77762633313
2023-01-26T06:47:16.338Z,97335.60269736113
2023-01-26T07:01:18.812Z,97320.19521106342
2023-01-26T07:04:16.888Z,97319.11041480755
2023-01-26T07:07:16.643Z,97312.85930444727
2023-01-26T07:11:17.037Z,97317.0168684937
2023-01-26T07:14:15.880Z,97321.42651299034
2023-01-26T07:17:15.944Z,97318.60393046429
2023-01-26T07:21:17.949Z,97321.2333910791
2023-01-26T07:24:16.185Z,97328.0143291577
2023-01-26T07:27:16.074Z,97324.41844918969
2023-01-26T07:31:16.110Z,97322.22716573036
2023-01-26T07:34:16.424Z,97318.94324549365
2023-01-26T07:37:16.281Z,97323.49701006354
2023-01-26T07:41:15.802Z,97325.69516859234
2023-01-26T07:44:16.012Z,97327.06664824871
2023-01-26T07:47:16.012Z,97330.22175237071
2023-01-26T07:51:16.439Z,97339.53292919949
2023-01-26T07:54:16.668Z,97337.82787135341
2023-01-26T07:57:16.796Z,97331.27249325346
2023-01-26T08:01:15.932Z,97336.77140518234
2023-01-26T08:04:17.818Z,97335.76695006633
2023-01-26T08:07:15.976Z,97332.56466817412
2023-01-26T08:11:17.283Z,97331.88416950351
2023-01-26T08:14:16.634Z,97333.19326278204
2023-01-26T08:17:17.920Z,97330.7668308755
2023-01-26T08:21:17.573Z,97335.05973172621
2023-01-26T08:24:16.569Z,97331.07832498063
2023-01-26T08:27:17.397Z,97332.9102697311
2023-01-26T08:31:20.315Z,97343.47981874135
2023-01-26T08:34:16.118Z,97343.89893802993
2023-01-26T08:37:16.100Z,97339.24242200483
2023-01-26T08:41:17.455Z,97334.87284930346
2023-01-26T08:44:17.092Z,97329.45081867206
2023-01-26T08:47:17.248Z,97334.07532167136
2023-01-26T08:51:16.039Z,97329.61291396554
2023-01-26T08:54:16.337Z,97321.88063725903
2023-01-26T08:57:16.543Z,97321.91811085244
2023-01-26T09:01:17.365Z,97320.50282947232
2023-01-26T09:04:16.557Z,97320.19861310162
2023-01-26T09:07:16.865Z,97322.01544770623
2023-01-26T09:11:17.308Z,97315.14142507127
2023-01-26T09:14:16.850Z,97309.64278267871
2023-01-26T09:17:17.328Z,97301.10255772961
2023-01-26T09:21:16.830Z,97307.6783852129
2023-01-26T09:24:16.538Z,97300.69400131245
2023-01-26T09:27:16.570Z,97296.97488245224
2023-01-26T09:31:16.774Z,97295.38654692862
2023-01-26T09:34:17.007Z,97297.38951250231
2023-01-26T09:37:17.160Z,97289.13271432609
2023-01-26T09:41:32.834Z,97281.49413277002
2023-01-26T09:44:20.291Z,97275.50070892581
2023-01-26T09:47:23.470Z,97280.78515838452
2023-01-26T09:51:23.741Z,97274.30231661846
2023-01-26T09:54:25.755Z,97272.41330752439
2023-01-26T09:57:19.978Z,97266.68637240179
2023-01-26T10:01:23.543Z,97265.38805645233
2023-01-26T10:04:27.968Z,97263.99851796613
2023-01-26T10:07:17.555Z,97267.60424229264
2023-01-26T10:11:21.169Z,97255.51784743002
2023-01-26T10:14:20.667Z,97265.53259770354
2023-01-26T10:17:23.969Z,97250.47107371996
2023-01-26T10:21:21.824Z,97240.48711201083
2023-01-26T10:24:20.952Z,97237.9776143455
2023-01-26T10:27:16.658Z,97238.5756482797
2023-01-26T10:31:19.468Z,97238.18619480169
2023-01-26T10:34:22.881Z,97218.70200867389
2023-01-26T10:37:21.256Z,97220.26730401692
2023-01-26T10:41:24.016Z,97200.26048903217
2023-01-26T10:44:24.084Z,97187.80300729212
2023-01-26T10:47:18.672Z,97189.63676497273
2023-01-26T10:51:24.075Z,97186.06529729602
2023-01-26T10:54:22.939Z,97174.42182389658
2023-01-26T10:57:22.084Z,97169.13011008396
2023-01-26T11:01:19.198Z,97157.77285042859
2023-01-26T11:04:16.559Z,97161.59850636082
2023-01-26T11:07:26.541Z,97154.84850011088
2023-01-26T11:11:25.410Z,97138.94252311482
2023-01-26T11:14:18.749Z,97117.37082607331
2023-01-26T11:17:24.831Z,97112.62468828488
2023-01-26T11:21:24.277Z,97102.92043642314
2023-01-26T11:24:25.609Z,97095.22950450704
2023-01-26T11:27:26.733Z,97082.23734107107
2023-01-26T11:31:28.614Z,97085.37124082595
2023-01-26T11:34:28.779Z,97067.75825424654
2023-01-26T11:37:38.423Z,97065.99271926
2023-01-26T11:41:29.168Z,97061.27288355658
2023-01-26T11:44:28.498Z,97064.18678536848
2023-01-26T11:47:28.947Z,97059.5503981087
2023-01-26T11:51:27.459Z,97054.20979248274
2023-01-26T11:54:28.428Z,97048.22092724309
2023-01-26T11:57:25.604Z,97038.12146563246
2023-01-26T12:01:22.310Z,97036.61268603937
2023-01-26T12:04:20.007Z,97031.01928338855
2023-01-26T12:07:22.250Z,97026.59649478013
2023-01-26T12:11:30.243Z,97027.01649775646
2023-01-26T12:14:22.714Z,97025.1387911636
2023-01-26T12:17:30.582Z,97024.02749857135
2023-01-26T12:21:17.694Z,97017.51813295938
2023-01-26T12:24:48.384Z,97014.44755196924
2023-01-26T12:27:24.373Z,97017.52033519396
2023-01-26T12:31:22.026Z,97006.64635895273
2023-01-26T12:34:22.902Z,96995.52293499738
2023-01-26T12:37:32.765Z,96992.04630145716
2023-01-26T12:41:28.180Z,96987.07333551065
2023-01-26T12:44:31.859Z,96985.46973246567
2023-01-26T12:47:21.941Z,96973.91693313007
2023-01-26T12:51:23.827Z,96968.98831034137
2023-01-26T12:54:22.474Z,96967.0570774247
2023-01-26T12:57:22.646Z,96964.18446871474
2023-01-26T13:01:20.477Z,96957.40651265098
2023-01-26T13:04:16.997Z,96955.57831242021
2023-01-26T13:07:28.878Z,96965.38314112091
2023-01-26T13:11:42.440Z,96955.97131489238
2023-01-26T13:14:36.253Z,96966.95061788945
2023-01-26T13:18:47.665Z,96965.41241123153
2023-01-26T13:21:26.023Z,96967.8419656761
2023-01-26T13:24:55.486Z,96964.43229733658
2023-01-26T13:27:42.982Z,96969.72634507308
2023-01-26T13:31:32.510Z,96964.6776130126
2023-01-26T13:34:21.234Z,96974.45850716201
2023-01-26T13:37:28.343Z,96968.97776945116
2023-01-26T13:41:18.682Z,96974.45491257697
2023-01-26T13:44:22.102Z,96968.68277630353
2023-01-26T13:47:23.317Z,96972.60751201029
2023-01-26T13:51:19.413Z,96977.77163479771
2023-01-26T13:54:18.223Z,96974.26066438622
2023-01-26T13:57:22.053Z,96979.91117382453
2023-01-26T14:01:16.085Z,96982.81065453749
2023-01-26T14:04:20.117Z,96986.43379125283
2023-01-26T14:07:19.661Z,96976.77341710724
2023-01-26T14:11:19.962Z,96979.42113322034
2023-01-26T14:14:23.884Z,96976.63392240251
2023-01-26T14:17:33.855Z,96974.09843543806
2023-01-26T14:21:19.796Z,96977.38239271061
2023-01-26T14:24:17.906Z,96983.94464473077
2023-01-26T14:27:30.121Z,96990.24319176443
2023-01-26T14:31:19.271Z,96986.95444304132
2023-01-26T14:34:20.611Z,96977.2339962806
2023-01-26T14:37:17.296Z,96980.20933687908
2023-01-26T14:41:19.988Z,96975.44528724863
2023-01-26T14:44:17.055Z,96979.41812974573
2023-01-26T14:47:21.832Z,96971.0575281544
2023-01-26T14:51:20.520Z,96972.44305212852
2023-01-26T14:54:24.220Z,96974.02420154834
2023-01-26T14:57:20.573Z,96965.61093981793
2023-01-26T15:01:21.312Z,96965.30248415748
2023-01-26T15:04:23.996Z,96967.55665992983
2023-01-26T15:07:53.855Z,96966.0350438316
2023-01-26T15:12:21.862Z,96967.73807486016
2023-01-26T15:14:35.599Z,96972.36130860218
2023-01-26T15:17:38.607Z,96980.14877746117
2023-01-26T15:21:19.927Z,96983.23150681616
2023-01-26T15:24:17.170Z,96986.04875827502
2023-01-26T15:27:16.830Z,96993.0341700208
2023-01-26T15:31:20.234Z,97000.07315174279
2023-01-26T15:35:01.789Z,97002.01761365474
2023-01-26T15:37:28.480Z,97003.47890634158
2023-01-26T15:41:16.179Z,96999.73900175413
2023-01-26T15:44:18.716Z,97001.9724566797
2023-01-26T15:47:17.053Z,97003.30069368493
2023-01-26T15:51:16.597Z,96994.64295061637
2023-01-26T15:54:16.885Z,96997.77602317749
2023-01-26T15:57:17.526Z,97004.42063813256
2023-01-26T16:01:20.483Z,97004.76763740001
2023-01-26T16:04:16.402Z,97007.98999638968
2023-01-26T16:07:17.876Z,97012.80914754652
2023-01-26T16:11:17.733Z,97019.63709444206
2023-01-26T16:14:17.411Z,97018.73748280833
2023-01-26T16:17:17.406Z,97018.70367790903
2023-01-26T16:21:21.035Z,97022.35892607899
2023-01-26T16:24:16.944Z,97023.09422145947
2023-01-26T16:27:17.196Z,97020.55177748569
2023-01-26T16:31:18.365Z,97015.82512621336
2023-01-26T16:34:16.121Z,97019.87030048599
2023-01-26T16:37:16.262Z,97016.9429573806
2023-01-26T16:41:21.051Z,97024.94726983164
2023-01-26T16:44:17.581Z,97028.0275381987
2023-01-26T16:47:16.484Z,97024.94024807129
2023-01-26T16:51:19.831Z,97031.81616684586
2023-01-26T16:54:16.546Z,97035.13680793112
2023-01-26T16:57:17.031Z,97037.85491885882
2023-01-26T17:01:19.701Z,97029.51700841854
2023-01-26T17:04:17.004Z,97034.24358666771
2023-01-26T17:07:17.060Z,97029.4234807647
2023-01-26T17:11:19.217Z,97030.47907123649
2023-01-26T17:14:17.077Z,97029.61097588594
2023-01-26T17:17:17.056Z,97030.59433503114
2023-01-26T17:21:18.637Z,97036.63819006478
2023-01-26T17:24:16.336Z,97041.61473950486
2023-01-26T17:27:16.315Z,97046.3359894519
2023-01-26T17:31:19.464Z,97045.93074572788
2023-01-26T17:34:17.139Z,97040.75851787506
2023-01-26T17:37:17.491Z,97043.50808935902
2023-01-26T17:41:16.805Z,97040.01311888514
2023-01-26T17:44:16.641Z,97043.74266584756
2023-01-26T17:47:16.372Z,97053.44074530412
2023-01-26T17:51:19.278Z,97056.27921399828
2023-01-26T17:54:17.246Z,97052.56424200442
2023-01-26T17:57:16.710Z,97053.94729871182
2023-01-26T18:01:18.428Z,97053.27926245374
2023-01-26T18:04:17.783Z,97048.66040097129
2023-01-26T18:07:17.679Z,97053.13401174301
2023-01-26T18:11:16.623Z,97060.19009743784
2023-01-26T18:14:16.147Z,97064.59678211914
2023-01-26T18:17:16.899Z,97070.27214602842
2023-01-26T18:21:19.788Z,97067.96919254542
2023-01-26T18:24:16.876Z,97071.29051519884
2023-01-26T18:27:16.785Z,97076.15873056077
2023-01-26T18:31:20.017Z,97071.75011674907
2023-01-26T18:34:16.851Z,97072.16564978626
2023-01-26T18:37:16.833Z,97072.694171852
2023-01-26T18:41:17.943Z,97073.34625919882
2023-01-26T18:44:19.310Z,97080.63645111467
2023-01-26T18:47:16.651Z,97084.75411809805
2023-01-26T18:51:18.434Z,97081.2843276312
2023-01-26T18:54:17.318Z,97080.57694830705
2023-01-26T18:57:17.229Z,97082.32988191237
2023-01-26T19:01:19.313Z,97083.17435152379
2023-01-26T19:04:18.420Z,97084.48762543772
2023-01-26T19:07:19.147Z,97080.81128064186
2023-01-26T19:11:16.753Z,97081.29397648275
2023-01-26T19:14:17.394Z,97087.51805964476
2023-01-26T19:17:18.343Z,97082.85402509604
2023-01-26T19:21:17.681Z,97090.3932426761
2023-01-26T19:24:16.598Z,97082.78061312082
2023-01-26T19:27:16.410Z,97090.69115512773
2023-01-26T19:31:20.390Z,97079.50342139092
2023-01-26T19:34:17.644Z,97084.5596452165
2023-01-26T19:37:16.701Z,97092.39465325883
2023-01-26T19:41:17.455Z,97100.84355785156
2023-01-26T19:44:17.157Z,97093.60426081599
2023-01-26T19:47:17.061Z,97100.86959750351
2023-01-26T19:51:17.839Z,97097.32783678596
2023-01-26T19:54:16.204Z,97089.55319952557
2023-01-26T19:57:16.446Z,97086.28777829067
2023-01-26T20:01:16.230Z,97079.14998470392
2023-01-26T20:04:16.483Z,97076.55664440768
2023-01-26T20:07:16.465Z,97077.31842799105
2023-01-26T20:11:16.324Z,97081.93186784133
2023-01-26T20:14:16.517Z,97079.81520630141
2023-01-26T20:17:17.147Z,97070.78875550447
2023-01-26T20:21:16.297Z,97066.61833513771
2023-01-26T20:24:16.784Z,97069.32355161695
2023-01-26T20:27:17.149Z,97064.12190230029
2023-01-26T20:31:19.582Z,97055.72910830115
2023-01-26T20:34:17.037Z,97056.29775932977
2023-01-26T20:37:16.623Z,97050.34639577853
2023-01-26T20:41:19.739Z,97043.88127918424
2023-01-26T20:44:17.909Z,97051.26083049226
2023-01-26T20:47:16.773Z,97047.47955072313
2023-01-26T20:51:18.440Z,97047.19410153128
2023-01-26T20:54:17.295Z,97047.38598651116
2023-01-26T20:57:16.537Z,97050.76308533181
2023-01-26T21:01:16.784Z,97048.93695411147
2023-01-26T21:04:16.658Z,97046.89630041167
2023-01-26T21:07:16.596Z,97045.00915025533
2023-01-26T21:11:16.565Z,97039.48539327092
2023-01-26T21:14:16.758Z,97032.52019540046
2023-01-26T21:17:17.840Z,97028.01732539677
2023-01-26T21:21:18.382Z,97031.43405079971
2023-01-26T21:24:17.098Z,97030.71979946892
2023-01-26T21:27:18.369Z,97028.97361696512
2023-01-26T21:31:16.652Z,97033.71253427285
2023-01-26T21:34:16.799Z,97038.0835720568
2023-01-26T21:37:16.626Z,97040.8155264927
2023-01-26T21:42:21.780Z,97035.74384327544
2023-01-26T21:44:18.875Z,97034.67450564569
2023-01-26T21:47:16.848Z,97035.59473606922
2023-01-26T22:01:16.193Z,97024.22052704774
2023-01-26T22:04:18.266Z,97027.02559806319
2023-01-26T22:07:16.583Z,97024.89323933925
2023-01-26T22:11:16.287Z,97025.78990045824
2023-01-26T22:14:18.412Z,97023.43643699995
2023-01-26T22:17:16.201Z,97019.99752673008
2023-01-26T22:21:17.634Z,97021.58776914408
2023-01-26T22:24:16.320Z,97019.26069867113
2023-01-26T22:27:16.216Z,97017.52610662031
2023-01-26T22:31:17.339Z,97023.21715124465
2023-01-26T22:34:16.283Z,97022.8506085922
2023-01-26T22:37:16.139Z,97023.44660917736
2023-01-26T22:41:18.398Z,97020.58256733631
2023-01-26T22:44:16.291Z,97021.79597324217
2023-01-26T22:47:16.102Z,97013.96858640145
2023-01-26T22:51:18.343Z,97008.77003962793
2023-01-26T22:54:17.018Z,97012.32662421989
2023-01-26T22:57:17.422Z,97011.91659983444
2023-01-26T23:01:16.561Z,97008.23031471818
2023-01-26T23:04:16.384Z,97011.13314689681
2023-01-26T23:07:16.704Z,97004.31598627826
2023-01-26T23:11:17.809Z,97006.81270188882
2023-01-26T23:14:16.075Z,97005.88127284606
2023-01-26T23:17:16.157Z,97004.01604562227
2023-01-26T23:21:16.209Z,97003.5065887055
2023-01-26T23:24:16.574Z,97001.70572364499
2023-01-26T23:27:16.514Z,97004.40922425147
2023-01-26T23:31:17.489Z,96993.41989864765
2023-01-26T23:34:16.521Z,96995.00022425868
2023-01-26T23:37:16.620Z,96993.0877043844
2023-01-26T23:41:17.563Z,96988.73147130116
2023-01-26T23:44:16.382Z,96989.61840456392
2023-01-26T23:47:16.473Z,96998.7921627629
2023-01-26T23:51:16.579Z,96993.51251756326
2023-01-26T23:54:16.883Z,96996.06615885584
2023-01-26T23:57:16.797Z,96996.08603483057
